createdAt,value
2018-07-06T00:00:49.654Z,80.80
2018-07-06T00:03:36.560Z,80.63
2018-07-06T00:06:25.511Z,80.76
2018-07-06T00:09:12.175Z,80.06
2018-07-06T00:12:05.139Z,80.41
2018-07-06T00:14:53.143Z,80.60
2018-07-06T00:17:40.467Z,80.47
2018-07-06T00:20:27.150Z,80.32
2018-07-06T00:23:15.395Z,80.73
2018-07-06T00:26:02.922Z,79.81
2018-07-06T00:28:51.616Z,79.73
2018-07-06T00:31:48.579Z,78.77
2018-07-06T00:34:35.976Z,79.76
2018-07-06T00:37:24.132Z,78.78
2018-07-06T00:40:11.949Z,78.62
2018-07-06T00:42:59.113Z,77.40
2018-07-06T00:45:46.972Z,76.67
2018-07-06T00:48:33.408Z,76.76
2018-07-06T00:51:20.143Z,76.65
2018-07-06T00:54:08.380Z,76.80
2018-07-06T00:56:54.905Z,76.86
2018-07-06T00:59:42.636Z,76.79
2018-07-06T01:02:28.884Z,76.59
2018-07-06T01:05:15.674Z,76.28
2018-07-06T01:08:02.929Z,76.26
2018-07-06T01:10:49.952Z,76.32
2018-07-06T01:13:37.954Z,76.41
2018-07-06T01:16:24.515Z,76.12
2018-07-06T01:19:11.589Z,76.15
2018-07-06T01:21:59.029Z,76.05
2018-07-06T01:24:46.974Z,76.54
2018-07-06T01:27:36.360Z,76.61
2018-07-06T01:30:23.427Z,76.14
2018-07-06T01:33:09.821Z,76.77
2018-07-06T01:35:57.176Z,76.85
2018-07-06T01:38:45.227Z,77.06
2018-07-06T01:41:33.635Z,77.75
2018-07-06T01:44:21.254Z,77.25
2018-07-06T01:47:08.581Z,77.05
2018-07-06T01:49:56.051Z,76.80
2018-07-06T01:52:43.777Z,76.10
2018-07-06T01:55:31.637Z,76.02
2018-07-06T01:58:18.581Z,75.73
2018-07-06T02:01:06.139Z,75.87
2018-07-06T02:03:54.109Z,75.85
2018-07-06T02:06:41.631Z,76.16
2018-07-06T02:09:28.730Z,76.86
2018-07-06T02:12:16.397Z,76.25
2018-07-06T02:15:04.602Z,77.00
2018-07-06T02:17:53.872Z,76.98
2018-07-06T02:20:41.430Z,76.78
2018-07-06T02:23:28.429Z,76.78
2018-07-06T02:26:16.918Z,77.20
2018-07-06T02:29:03.464Z,77.01
2018-07-06T02:31:49.834Z,76.71
2018-07-06T02:34:37.707Z,76.67
2018-07-06T02:37:24.728Z,76.94
2018-07-06T02:40:11.352Z,76.37
2018-07-06T02:42:57.784Z,75.62
2018-07-06T02:45:44.984Z,75.57
2018-07-06T02:48:31.927Z,75.15
2018-07-06T02:51:19.302Z,73.95
2018-07-06T02:54:07.951Z,74.97
2018-07-06T02:56:54.726Z,74.54
2018-07-06T02:59:42.655Z,74.80
2018-07-06T03:02:29.985Z,74.64
2018-07-06T03:05:18.542Z,74.61
2018-07-06T03:08:06.091Z,74.14
2018-07-06T03:10:52.494Z,74.39
2018-07-06T03:13:39.005Z,74.60
2018-07-06T03:16:26.232Z,75.44
2018-07-06T03:19:13.889Z,75.07
2018-07-06T03:22:00.829Z,75.30
2018-07-06T03:24:47.540Z,74.71
2018-07-06T03:27:34.598Z,75.27
2018-07-06T03:30:21.417Z,75.33
2018-07-06T03:33:08.314Z,76.26
2018-07-06T03:35:55.431Z,75.48
2018-07-06T03:38:43.361Z,75.25
2018-07-06T03:41:30.287Z,75.98
2018-07-06T03:44:17.488Z,75.82
2018-07-06T03:47:04.792Z,76.12
2018-07-06T03:49:52.030Z,76.02
2018-07-06T03:52:38.971Z,76.37
2018-07-06T03:55:25.290Z,76.69
2018-07-06T03:58:13.480Z,76.79
2018-07-06T04:01:00.775Z,76.97
2018-07-06T04:03:47.990Z,77.28
2018-07-06T04:06:34.814Z,76.87
2018-07-06T04:09:21.746Z,77.49
2018-07-06T04:12:10.125Z,77.79
2018-07-06T04:14:58.116Z,78.44
2018-07-06T04:17:44.496Z,78.69
2018-07-06T04:20:31.648Z,79.44
2018-07-06T04:23:21.205Z,79.88
2018-07-06T04:26:08.852Z,80.95
2018-07-06T04:28:55.688Z,80.77
2018-07-06T04:31:43.734Z,80.56
2018-07-06T04:34:30.677Z,80.86
2018-07-06T04:37:17.819Z,80.27
2018-07-06T04:40:04.885Z,79.98
2018-07-06T04:42:53.423Z,80.00
2018-07-06T04:45:40.907Z,79.45
2018-07-06T04:48:28.611Z,79.12
2018-07-06T04:51:15.095Z,79.21
2018-07-06T04:54:02.623Z,79.22
2018-07-06T04:56:50.743Z,79.60
2018-07-06T04:59:37.888Z,79.46
2018-07-06T05:02:26.324Z,79.24
2018-07-06T05:05:14.581Z,78.73
2018-07-06T05:08:01.914Z,78.74
2018-07-06T05:10:50.304Z,78.63
2018-07-06T05:13:38.283Z,77.52
2018-07-06T05:16:25.331Z,76.77
2018-07-06T05:19:12.310Z,75.93
2018-07-06T05:21:59.511Z,74.94
2018-07-06T05:24:48.089Z,75.62
2018-07-06T05:27:35.180Z,75.84
2018-07-06T05:30:22.396Z,76.69
2018-07-06T05:33:09.703Z,76.12
2018-07-06T05:35:58.870Z,77.02
2018-07-06T05:38:46.443Z,76.62
2018-07-06T05:41:33.255Z,76.62
2018-07-06T05:44:21.326Z,76.45
2018-07-06T05:47:08.898Z,75.90
2018-07-06T05:49:56.002Z,75.13
2018-07-06T05:52:42.854Z,75.35
2018-07-06T05:55:30.996Z,74.19
2018-07-06T05:58:19.344Z,72.66
2018-07-06T06:01:06.349Z,73.83
2018-07-06T06:03:53.195Z,72.68
2018-07-06T06:06:41.125Z,71.76
2018-07-06T06:09:17.157Z,71.74
2018-07-06T06:11:48.006Z,70.02
2018-07-06T06:14:19.102Z,68.67
2018-07-06T06:16:50.533Z,68.48
2018-07-06T06:19:20.993Z,67.19
2018-07-06T06:21:51.500Z,67.44
2018-07-06T06:24:21.232Z,67.51
2018-07-06T06:26:51.431Z,68.60
2018-07-06T06:29:20.759Z,69.03
2018-07-06T06:31:51.719Z,69.46
2018-07-06T06:34:24.487Z,69.30
2018-07-06T06:36:55.031Z,69.43
2018-07-06T06:39:25.962Z,68.38
2018-07-06T06:41:55.299Z,69.32
2018-07-06T06:44:25.155Z,69.23
2018-07-06T06:47:01.116Z,68.77
2018-07-06T06:49:32.480Z,69.23
2018-07-06T06:52:03.045Z,68.78
2018-07-06T06:54:34.259Z,69.24
2018-07-06T06:57:06.994Z,68.58
2018-07-06T06:59:36.815Z,69.04
2018-07-06T07:02:07.488Z,69.04
2018-07-06T07:04:38.665Z,67.81
2018-07-06T07:07:09.424Z,68.85
2018-07-06T07:09:40.856Z,67.89
2018-07-06T07:12:11.303Z,67.68
2018-07-06T07:14:40.727Z,68.14
2018-07-06T07:17:13.145Z,67.61
2018-07-06T07:19:42.699Z,65.03
2018-07-06T07:22:12.918Z,64.65
2018-07-06T07:24:42.933Z,64.70
2018-07-06T07:27:17.313Z,64.54
2018-07-06T07:29:49.035Z,63.44
2018-07-06T07:32:18.471Z,64.56
2018-07-06T07:34:48.996Z,63.80
2018-07-06T07:37:24.367Z,62.75
2018-07-06T07:39:54.331Z,63.38
2018-07-06T07:42:24.688Z,62.49
2018-07-06T07:44:54.958Z,62.26
2018-07-06T07:47:27.071Z,60.36
2018-07-06T07:49:59.424Z,59.82
2018-07-06T07:52:41.418Z,60.28
2018-07-06T07:55:11.985Z,60.21
2018-07-06T07:57:43.424Z,59.84
2018-07-06T08:00:13.072Z,59.02
2018-07-06T08:02:43.949Z,58.33
2018-07-06T08:05:14.979Z,59.05
2018-07-06T08:07:45.681Z,58.52
2018-07-06T08:10:18.383Z,58.85
2018-07-06T08:12:49.955Z,58.78
2018-07-06T08:15:22.191Z,58.24
2018-07-06T08:17:54.343Z,57.00
2018-07-06T08:20:26.769Z,57.40
2018-07-06T08:22:59.893Z,56.41
2018-07-06T08:25:32.130Z,55.40
2018-07-06T08:28:05.348Z,55.36
2018-07-06T08:30:36.595Z,54.52
2018-07-06T08:33:06.957Z,55.24
2018-07-06T08:35:48.425Z,54.14
2018-07-06T08:38:18.721Z,52.92
2018-07-06T08:40:48.386Z,53.71
2018-07-06T08:43:18.424Z,55.42
2018-07-06T08:45:48.260Z,54.10
2018-07-06T08:48:22.424Z,54.27
2018-07-06T08:50:52.331Z,53.80
2018-07-06T08:53:21.912Z,53.45
2018-07-06T08:55:51.591Z,53.26
2018-07-06T08:58:21.611Z,53.03
2018-07-06T09:00:52.574Z,53.68
2018-07-06T09:03:22.276Z,52.83
2018-07-06T09:05:52.219Z,52.20
2018-07-06T09:08:23.192Z,51.82
2018-07-06T09:10:53.796Z,52.01
2018-07-06T09:13:23.553Z,51.84
2018-07-06T09:15:53.187Z,51.91
2018-07-06T09:18:23.907Z,51.24
2018-07-06T09:20:56.323Z,50.28
2018-07-06T09:23:28.442Z,50.21
2018-07-06T09:26:03.015Z,49.29
2018-07-06T09:28:37.783Z,48.74
2018-07-06T09:31:08.176Z,48.48
2018-07-06T09:33:44.087Z,48.96
2018-07-06T09:36:18.519Z,49.01
2018-07-06T09:38:53.595Z,48.46
2018-07-06T09:41:23.508Z,48.09
2018-07-06T09:43:53.683Z,47.00
2018-07-06T09:46:23.494Z,48.43
2018-07-06T09:48:52.776Z,47.24
2018-07-06T09:51:22.097Z,48.03
2018-07-06T09:53:51.743Z,45.86
2018-07-06T09:56:21.072Z,43.88
2018-07-06T09:58:50.908Z,43.14
2018-07-06T10:01:21.120Z,43.85
2018-07-06T10:03:50.426Z,43.13
2018-07-06T10:06:20.154Z,42.40
2018-07-06T10:08:49.434Z,41.00
2018-07-06T10:11:18.835Z,40.57
2018-07-06T10:13:52.164Z,40.79
2018-07-06T10:16:30.130Z,40.36
2018-07-06T10:19:02.833Z,41.00
2018-07-06T10:21:42.061Z,39.77
2018-07-06T10:24:16.044Z,38.72
2018-07-06T10:26:45.965Z,39.02
2018-07-06T10:30:00.739Z,38.00
2018-07-06T10:32:31.277Z,36.15
2018-07-06T10:35:03.290Z,36.04
2018-07-06T10:37:34.096Z,36.08
2018-07-06T10:40:06.424Z,36.16
2018-07-06T10:42:38.577Z,33.87
2018-07-06T10:45:09.670Z,34.16
2018-07-06T10:47:39.307Z,34.64
2018-07-06T10:50:12.663Z,34.46
2018-07-06T10:52:42.936Z,33.27
2018-07-06T10:55:14.778Z,33.12
2018-07-06T10:57:44.717Z,34.62
2018-07-06T11:00:14.480Z,33.47
2018-07-06T11:02:48.205Z,32.19
2018-07-06T11:05:18.388Z,31.29
2018-07-06T11:07:47.931Z,32.40
2018-07-06T11:10:21.761Z,33.18
2018-07-06T11:12:53.026Z,33.37
2018-07-06T11:15:22.679Z,31.63
2018-07-06T11:17:52.032Z,32.37
2018-07-06T11:20:22.181Z,32.38
2018-07-06T11:22:52.386Z,32.57
2018-07-06T11:25:22.942Z,32.34
2018-07-06T11:27:53.131Z,32.01
2018-07-06T11:30:26.197Z,33.13
2018-07-06T11:32:56.486Z,32.15
2018-07-06T11:35:27.748Z,31.91
2018-07-06T11:37:59.427Z,33.38
2018-07-06T11:40:30.788Z,32.38
2018-07-06T11:43:00.761Z,32.19
2018-07-06T11:45:30.092Z,31.06
2018-07-06T11:47:59.816Z,30.30
2018-07-06T11:50:30.141Z,29.80
2018-07-06T11:53:00.108Z,30.81
2018-07-06T11:55:29.477Z,29.71
2018-07-06T11:57:59.285Z,27.86
2018-07-06T12:00:30.880Z,28.44
2018-07-06T12:03:00.844Z,27.67
2018-07-06T12:05:30.183Z,27.73
2018-07-06T12:08:01.786Z,28.33
2018-07-06T12:10:31.100Z,29.46
2018-07-06T12:13:01.320Z,30.53
2018-07-06T12:15:31.012Z,31.11
2018-07-06T12:18:01.065Z,30.54
2018-07-06T12:20:31.601Z,30.78
2018-07-06T12:23:01.447Z,30.55
2018-07-06T12:25:31.547Z,30.12
2018-07-06T12:28:01.017Z,29.00
2018-07-06T12:30:30.757Z,29.00
2018-07-06T12:33:03.339Z,29.73
2018-07-06T12:35:33.852Z,27.23
2018-07-06T12:38:08.213Z,26.86
2018-07-06T12:40:46.530Z,26.35
2018-07-06T12:43:16.859Z,26.71
2018-07-06T12:45:46.268Z,27.41
2018-07-06T12:48:17.175Z,28.28
2018-07-06T12:50:48.926Z,29.35
2018-07-06T12:53:19.424Z,28.77
2018-07-06T12:55:49.724Z,27.94
2018-07-06T12:58:20.401Z,28.74
2018-07-06T13:00:52.772Z,27.89
2018-07-06T13:03:23.354Z,27.19
2018-07-06T13:05:53.795Z,26.64
2018-07-06T13:08:23.150Z,27.43
2018-07-06T13:10:54.599Z,27.92
2018-07-06T13:13:25.009Z,28.21
2018-07-06T13:15:55.147Z,28.98
2018-07-06T13:18:24.512Z,29.08
2018-07-06T13:20:54.461Z,29.01
2018-07-06T13:23:24.048Z,29.30
2018-07-06T13:25:53.826Z,29.47
2018-07-06T13:28:23.207Z,29.47
2018-07-06T13:30:55.904Z,29.17
2018-07-06T13:33:26.185Z,29.46
2018-07-06T13:35:55.553Z,29.30
2018-07-06T13:38:25.247Z,29.78
2018-07-06T13:40:55.048Z,29.79
2018-07-06T13:43:24.667Z,30.10
2018-07-06T13:45:55.163Z,29.24
2018-07-06T13:48:24.680Z,29.01
2018-07-06T13:50:54.463Z,29.47
2018-07-06T13:53:25.728Z,29.69
2018-07-06T13:55:55.920Z,29.53
2018-07-06T13:58:26.945Z,28.86
2018-07-06T14:00:56.564Z,29.68
2018-07-06T14:03:26.556Z,29.92
2018-07-06T14:05:56.756Z,30.20
2018-07-06T14:08:26.412Z,29.83
2018-07-06T14:10:56.266Z,30.31
2018-07-06T14:13:26.625Z,30.82
2018-07-06T14:15:56.700Z,32.29
2018-07-06T14:18:26.088Z,32.40
2018-07-06T14:20:57.114Z,32.84
2018-07-06T14:23:30.990Z,32.14
2018-07-06T14:26:00.718Z,32.02
2018-07-06T14:28:30.079Z,31.41
2018-07-06T14:31:00.304Z,32.07
2018-07-06T14:33:30.263Z,31.69
2018-07-06T14:35:59.620Z,31.49
2018-07-06T14:38:29.943Z,31.47
2018-07-06T14:40:59.307Z,31.69
2018-07-06T14:43:31.929Z,32.09
2018-07-06T14:46:02.561Z,31.25
2018-07-06T14:48:33.213Z,31.05
2018-07-06T14:51:04.339Z,31.80
2018-07-06T14:53:33.704Z,31.47
2018-07-06T14:56:03.030Z,31.11
2018-07-06T14:58:32.375Z,30.92
2018-07-06T15:01:02.461Z,30.85
2018-07-06T15:03:33.549Z,31.19
2018-07-06T15:06:07.573Z,30.64
2018-07-06T15:08:40.715Z,30.62
2018-07-06T15:11:12.486Z,30.61
2018-07-06T15:13:43.415Z,31.00
2018-07-06T15:16:12.790Z,31.13
2018-07-06T15:18:42.500Z,30.22
2018-07-06T15:21:13.057Z,29.74
2018-07-06T15:23:42.396Z,29.38
2018-07-06T15:26:12.490Z,30.40
2018-07-06T15:28:52.827Z,31.82
2018-07-06T15:31:31.091Z,32.52
2018-07-06T15:34:04.665Z,32.62
2018-07-06T15:36:35.901Z,34.08
2018-07-06T15:39:10.304Z,34.26
2018-07-06T15:41:40.455Z,34.71
2018-07-06T15:44:10.134Z,34.90
2018-07-06T15:46:40.459Z,34.12
2018-07-06T15:49:14.645Z,34.78
2018-07-06T15:51:46.848Z,35.19
2018-07-06T15:54:16.471Z,35.26
2018-07-06T15:56:46.272Z,34.57
2018-07-06T15:59:16.573Z,35.19
2018-07-06T16:01:49.044Z,35.09
2018-07-06T16:04:19.885Z,36.00
2018-07-06T16:06:52.850Z,35.50
2018-07-06T16:09:24.356Z,35.42
2018-07-06T16:11:58.189Z,34.89
2018-07-06T16:14:33.666Z,34.59
2018-07-06T16:17:09.676Z,34.50
2018-07-06T16:19:44.932Z,33.57
2018-07-06T16:22:18.234Z,34.66
2018-07-06T16:24:50.014Z,34.42
2018-07-06T16:27:20.686Z,34.61
2018-07-06T16:29:57.276Z,34.28
2018-07-06T16:32:29.038Z,33.57
2018-07-06T16:34:59.496Z,34.31
2018-07-06T16:37:30.331Z,34.37
2018-07-06T16:40:00.505Z,34.67
2018-07-06T16:42:35.914Z,34.51
2018-07-06T16:45:05.968Z,34.18
2018-07-06T16:47:37.039Z,34.00
2018-07-06T16:50:06.743Z,33.88
2018-07-06T16:52:40.393Z,33.89
2018-07-06T16:55:12.649Z,34.65
2018-07-06T16:57:43.505Z,35.57
2018-07-06T17:00:14.952Z,35.65
2018-07-06T17:02:53.709Z,34.97
2018-07-06T17:05:25.774Z,35.02
2018-07-06T17:07:55.379Z,35.35
2018-07-06T17:10:26.134Z,34.89
2018-07-06T17:12:58.112Z,35.32
2018-07-06T17:15:28.384Z,34.79
2018-07-06T17:17:58.553Z,33.53
2018-07-06T17:20:28.349Z,33.82
2018-07-06T17:23:01.648Z,33.83
2018-07-06T17:25:31.196Z,34.18
2018-07-06T17:28:00.531Z,33.66
2018-07-06T17:30:30.479Z,34.45
2018-07-06T17:32:59.877Z,34.35
2018-07-06T17:35:30.255Z,34.48
2018-07-06T17:37:59.586Z,34.58
2018-07-06T17:40:29.440Z,34.86
2018-07-06T17:43:01.062Z,35.39
2018-07-06T17:45:31.490Z,35.55
2018-07-06T17:48:02.412Z,34.58
2018-07-06T17:50:32.091Z,33.42
2018-07-06T17:53:01.697Z,33.01
2018-07-06T17:55:32.365Z,33.31
2018-07-06T17:58:03.345Z,33.28
2018-07-06T18:00:32.773Z,33.33
2018-07-06T18:03:03.067Z,33.18
2018-07-06T18:05:32.753Z,32.63
2018-07-06T18:08:02.359Z,33.12
2018-07-06T18:10:32.071Z,32.79
2018-07-06T18:13:01.673Z,33.55
2018-07-06T18:15:31.107Z,33.89
2018-07-06T18:18:00.540Z,34.62
2018-07-06T18:20:30.439Z,34.96
2018-07-06T18:23:00.628Z,34.94
2018-07-06T18:25:32.663Z,35.26
2018-07-06T18:28:02.287Z,35.07
2018-07-06T18:30:34.154Z,34.61
2018-07-06T18:33:10.784Z,34.87
2018-07-06T18:35:40.382Z,35.23
2018-07-06T18:38:11.007Z,35.61
2018-07-06T18:40:45.567Z,35.46
2018-07-06T18:43:18.093Z,35.68
2018-07-06T18:45:48.519Z,35.98
2018-07-06T18:48:18.116Z,35.75
2018-07-06T18:50:50.744Z,36.37
2018-07-06T18:53:21.520Z,36.82
2018-07-06T18:55:52.903Z,37.66
2018-07-06T18:58:28.625Z,37.58
2018-07-06T19:01:01.094Z,37.88
2018-07-06T19:03:31.779Z,38.48
2018-07-06T19:06:01.151Z,38.71
2018-07-06T19:08:31.600Z,38.89
2018-07-06T19:11:01.365Z,38.85
2018-07-06T19:13:34.246Z,39.03
2018-07-06T19:16:04.130Z,38.96
2018-07-06T19:18:34.291Z,39.07
2018-07-06T19:21:03.693Z,38.83
2018-07-06T19:23:33.073Z,39.02
2018-07-06T19:26:02.437Z,39.93
2018-07-06T19:28:31.782Z,39.71
2018-07-06T19:31:01.871Z,39.67
2018-07-06T19:33:32.006Z,39.28
2018-07-06T19:36:01.376Z,39.68
2018-07-06T19:38:31.917Z,40.89
2018-07-06T19:41:02.084Z,41.14
2018-07-06T19:43:32.302Z,41.40
2018-07-06T19:46:01.905Z,41.24
2018-07-06T19:48:31.370Z,41.01
2018-07-06T19:51:04.496Z,41.84
2018-07-06T19:53:35.911Z,41.90
2018-07-06T19:56:05.767Z,42.11
2018-07-06T19:58:35.132Z,42.80
2018-07-06T20:01:04.504Z,43.06
2018-07-06T20:03:34.216Z,42.42
2018-07-06T20:06:03.957Z,43.26
2018-07-06T20:08:33.630Z,43.25
2018-07-06T20:11:02.987Z,43.21
2018-07-06T20:13:32.289Z,43.31
2018-07-06T20:16:01.633Z,43.73
2018-07-06T20:18:31.239Z,43.11
2018-07-06T20:21:00.899Z,44.03
2018-07-06T20:23:30.215Z,44.04
2018-07-06T20:25:59.524Z,43.51
2018-07-06T20:28:28.855Z,43.16
2018-07-06T20:30:58.616Z,43.72
2018-07-06T20:33:38.677Z,43.37
2018-07-06T20:36:08.956Z,43.71
2018-07-06T20:38:38.247Z,43.74
2018-07-06T20:41:07.899Z,43.81
2018-07-06T20:43:37.216Z,44.41
2018-07-06T20:46:06.805Z,44.51
2018-07-06T20:48:36.152Z,44.53
2018-07-06T20:51:05.946Z,44.47
2018-07-06T20:53:35.678Z,44.49
2018-07-06T20:56:10.614Z,44.85
2018-07-06T20:58:40.362Z,44.29
2018-07-06T21:01:10.524Z,44.63
2018-07-06T21:03:41.861Z,45.04
2018-07-06T21:06:11.723Z,45.07
2018-07-06T21:08:43.452Z,44.67
2018-07-06T21:11:14.244Z,44.53
2018-07-06T21:13:49.051Z,44.78
2018-07-06T21:16:19.283Z,44.86
2018-07-06T21:18:49.360Z,45.21
2018-07-06T21:21:20.802Z,44.93
2018-07-06T21:23:51.039Z,45.17
2018-07-06T21:26:20.339Z,45.73
2018-07-06T21:28:50.247Z,45.89
2018-07-06T21:31:19.977Z,46.60
2018-07-06T21:34:00.399Z,46.65
2018-07-06T21:36:30.092Z,47.01
2018-07-06T21:38:59.941Z,47.06
2018-07-06T21:41:29.828Z,47.62
2018-07-06T21:43:59.571Z,47.62
2018-07-06T21:46:28.909Z,47.83
2018-07-06T21:48:58.241Z,47.96
2018-07-06T21:51:27.543Z,48.43
2018-07-06T21:53:56.914Z,48.63
2018-07-06T21:56:26.249Z,49.36
2018-07-06T21:58:55.778Z,49.19
2018-07-06T22:01:27.488Z,49.25
2018-07-06T22:03:57.930Z,49.41
2018-07-06T22:06:29.549Z,49.38
2018-07-06T22:08:59.001Z,49.39
2018-07-06T22:11:28.302Z,49.44
2018-07-06T22:13:57.987Z,49.77
2018-07-06T22:16:27.302Z,50.31
2018-07-06T22:19:00.647Z,50.70
2018-07-06T22:21:30.963Z,50.75
2018-07-06T22:24:02.718Z,50.87
2018-07-06T22:26:34.314Z,50.60
2018-07-06T22:29:04.278Z,51.49
2018-07-06T22:31:35.268Z,51.21
2018-07-06T22:34:06.587Z,52.15
2018-07-06T22:36:36.116Z,52.18
2018-07-06T22:39:06.159Z,53.31
2018-07-06T22:41:35.496Z,53.21
2018-07-06T22:44:06.111Z,53.36
2018-07-06T22:46:35.764Z,53.53
2018-07-06T22:49:05.388Z,53.72
2018-07-06T22:51:34.719Z,53.48
2018-07-06T22:54:04.053Z,53.99
2018-07-06T22:56:33.775Z,53.87
2018-07-06T22:59:03.121Z,53.84
2018-07-06T23:01:33.797Z,54.55
2018-07-06T23:04:04.645Z,54.64
2018-07-06T23:06:34.885Z,54.41
2018-07-06T23:09:05.532Z,53.98
2018-07-06T23:11:34.884Z,54.18
2018-07-06T23:14:04.996Z,54.35
2018-07-06T23:16:34.939Z,54.44
2018-07-06T23:19:05.048Z,55.09
2018-07-06T23:21:35.338Z,54.53
2018-07-06T23:24:06.184Z,54.69
2018-07-06T23:26:35.653Z,55.16
2018-07-06T23:29:05.085Z,55.04
2018-07-06T23:31:34.428Z,54.54
2018-07-06T23:34:08.419Z,54.74
2018-07-06T23:36:37.737Z,54.96
2018-07-06T23:39:07.103Z,54.67
2018-07-06T23:41:36.402Z,55.27
2018-07-06T23:44:05.776Z,55.40
2018-07-06T23:46:35.047Z,56.03
2018-07-06T23:49:04.421Z,56.04
2018-07-06T23:51:34.308Z,56.63
2018-07-06T23:54:03.736Z,55.91
2018-07-06T23:56:33.237Z,55.67
2018-07-06T23:59:02.659Z,56.38
